| Date | Time | Temp. (oF) | Dew Point (oF) | Rel. Hum. (%) | Press. (in.) | Wind Dir. | Wind Speed (mph) | Hourly Rainfall (in.) |
|
|---|---|---|---|---|---|---|---|---|---|
| 1 | 01/12 | 00:00 | 31 | 24 | 76 | 30.47 | SSW | 0 | 0.00 |
| 2 | 01/11 | 23:00 | 32 | 20 | 63 | 30.49 | SSW | 0 | 0.00 |
| 3 | 01/11 | 22:00 | 31 | 18 | 59 | 30.51 | S | 0 | 0.00 |
| 4 | 01/11 | 21:00 | 31 | 17 | 58 | 30.52 | S | 0 | 0.00 |
| 5 | 01/11 | 20:00 | 31 | 17 | 56 | 30.53 | S | 2 | 0.00 |
| 6 | 01/11 | 19:00 | 32 | 16 | 53 | 30.53 | SSW | 4 | 0.00 |
| 7 | 01/11 | 18:00 | 31 | 17 | 57 | 30.52 | S | 0 | 0.00 |
| 8 | 01/11 | 17:00 | 31 | 18 | 59 | 30.50 | SSE | 4 | 0.00 |
| 9 | 01/11 | 16:00 | 33 | 18 | 54 | 30.50 | SSE | 7 | 0.00 |
| 10 | 01/11 | 15:00 | 36 | 15 | 42 | 30.49 | S | 4 | 0.00 |
| 11 | 01/11 | 14:00 | 36 | 16 | 45 | 30.51 | SSE | 6 | 0.00 |
| 12 | 01/11 | 13:00 | 33 | 15 | 49 | 30.54 | S | 4 | 0.00 |
| 13 | 01/11 | 12:00 | 30 | 14 | 53 | 30.58 | S | 4 | 0.00 |
| 14 | 01/11 | 11:00 | 28 | 16 | 62 | 30.62 | SW | 4 | 0.00 |
| 15 | 01/11 | 10:00 | 24 | 15 | 71 | 30.64 | SSW | 0 | 0.00 |
| 16 | 01/11 | 09:00 | 16 | 10 | 80 | 30.64 | S | 0 | 0.00 |
| 17 | 01/11 | 08:00 | 11 | 9 | 92 | 30.62 | SE | 0 | 0.00 |
| 18 | 01/11 | 07:00 | 10 | 6 | 86 | 30.62 | S | 0 | 0.00 |
| 19 | 01/11 | 06:00 | 9 | 6 | 89 | 30.62 | SE | 0 | 0.00 |
| 20 | 01/11 | 05:00 | 10 | 7 | 89 | 30.62 | N | 0 | 0.00 |
| 21 | 01/11 | 04:00 | 10 | 6 | 86 | 30.61 | ESE | 0 | 0.00 |
| 22 | 01/11 | 03:00 | 8 | 5 | 88 | 30.61 | NNE | 0 | 0.00 |
| 23 | 01/11 | 02:00 | 8 | 4 | 86 | 30.60 | S | 0 | 0.00 |
| 24 | 01/11 | 01:00 | 6 | 2 | 86 | 30.60 | SW | 0 | 0.00 |